San Benito, California
Current Conditions -  °F | °C
As of 1:53 PM on Friday 31 Oct 2014 (Local Time) from KSNS Reporting Station
Light Rain Light Rain  
Wind Chill: 65°   Ceiling: 8000
Heat Index: 65°   Visibility: 8mi
Dew Point: 57°   Wind: 7mph
Humidity: 75%   Direction: 310°NW
Pressure: 29.81"   Gusts: NA
Location:  36.4824°N, 120.948°W
Report Text: KSNS 312053Z 31006KT 8SM -RA SCT065 OVC080 18/14 A2981 RMK AO2 RAB12 SLP103 P0000 60000 T01830139 58021
Loading
Personal Weather Stations






























Interactive Weather Map New forecast layout! Learn more

10-Day Weather Forecast

Advertisements
Track Severe Weather on mobile